Time;durP1;ratioP1;P1;durP2;ratioP2;P2;SDS_P1;SDS_P2;PMS_P1;PMS_P2;Temp;Humidity;BMP_temperature;BMP_pressure;BME280_temperature;BME280_humidity;BME280_pressure;Samples;Min_cycle;Max_cycle;Signal;HPM_P1;HPM_P2
2022/09/05 00:02:55;;;;;;;;;;;24.10;44.30;;;;;;8430473;28;19955;-45
2022/09/05 00:07:02;;;;;;;;;;;24.10;44.40;;;;;;8430229;28;20500;-45
2022/09/05 00:11:13;;;;;;;;;;;24.10;44.40;;;;;;8430114;28;20315;-45
2022/09/05 00:15:40;;;;;;;;;;;24.10;44.40;;;;;;8429323;28;20419;-44
2022/09/05 00:19:40;;;;;;;;;;;24.10;44.30;;;;;;8426035;28;19928;-45
2022/09/05 00:23:50;;;;;;;;;;;24.10;44.40;;;;;;8429289;28;19920;-45
2022/09/05 00:28:01;;;;;;;;;;;24.10;44.40;;;;;;8429798;28;19916;-45
2022/09/05 00:32:08;;;;;;;;;;;24.10;44.40;;;;;;8429697;28;19913;-45
2022/09/05 00:36:21;;;;;;;;;;;24.10;44.30;;;;;;8428956;28;19924;-45
2022/09/05 00:40:27;;;;;;;;;;;24.10;44.40;;;;;;8429686;28;19957;-45
2022/09/05 00:44:30;;;;;;;;;;;24.10;44.40;;;;;;8429164;28;20288;-46
2022/09/05 00:48:42;;;;;;;;;;;24.00;44.30;;;;;;8429098;28;19920;-45
2022/09/05 00:53:03;;;;;;;;;;;24.00;44.30;;;;;;8429250;28;19919;-45
2022/09/05 00:57:04;;;;;;;;;;;24.00;44.40;;;;;;8428238;28;20008;-45
2022/09/05 01:01:18;;;;;;;;;;;24.00;44.40;;;;;;8429198;28;20364;-45
2022/09/05 01:05:24;;;;;;;;;;;24.00;44.40;;;;;;8428985;28;19923;-45
2022/09/05 01:09:32;;;;;;;;;;;24.00;44.40;;;;;;8428047;28;20468;-45
2022/09/05 01:13:52;;;;;;;;;;;24.00;44.40;;;;;;8429152;28;19920;-46
2022/09/05 01:17:55;;;;;;;;;;;24.00;44.40;;;;;;8428271;28;20400;-47
2022/09/05 01:22:20;;;;;;;;;;;24.00;44.40;;;;;;8428921;28;20426;-45
2022/09/05 01:26:21;;;;;;;;;;;24.00;44.40;;;;;;8428709;28;19923;-44
2022/09/05 01:30:34;;;;;;;;;;;24.00;44.40;;;;;;8434515;28;20371;-46
2022/09/05 01:34:47;;;;;;;;;;;24.00;44.40;;;;;;8435053;28;20276;-46
2022/09/05 01:38:50;;;;;;;;;;;24.00;44.40;;;;;;8434220;28;19930;-45
2022/09/05 01:43:04;;;;;;;;;;;24.00;44.40;;;;;;8434542;28;20373;-44
2022/09/05 01:47:14;;;;;;;;;;;24.00;44.40;;;;;;8434325;28;19916;-44
2022/09/05 01:51:33;;;;;;;;;;;24.00;44.50;;;;;;8433851;28;19923;-45
2022/09/05 01:55:42;;;;;;;;;;;23.90;44.40;;;;;;8434149;28;20335;-43
2022/09/05 02:00:06;;;;;;;;;;;23.90;44.40;;;;;;8433398;28;19920;-43
2022/09/05 02:04:19;;;;;;;;;;;23.90;44.40;;;;;;8395510;28;19995;-44
2022/09/05 02:08:22;;;;;;;;;;;23.90;44.50;;;;;;8433189;28;19939;-43
2022/09/05 02:12:31;;;;;;;;;;;23.90;44.50;;;;;;8433390;28;19927;-46
2022/09/05 02:16:43;;;;;;;;;;;23.90;44.40;;;;;;8433171;28;19964;-45
2022/09/05 02:20:45;;;;;;;;;;;23.90;44.50;;;;;;8432910;28;19971;-46
2022/09/05 02:25:00;;;;;;;;;;;23.90;44.50;;;;;;8433115;28;19951;-45
2022/09/05 02:29:19;;;;;;;;;;;23.90;44.50;;;;;;8433004;28;19916;-44
2022/09/05 02:33:21;;;;;;;;;;;23.90;44.50;;;;;;8432402;28;19916;-45
2022/09/05 02:37:34;;;;;;;;;;;23.90;44.50;;;;;;8432508;28;20411;-46
2022/09/05 02:41:42;;;;;;;;;;;23.80;44.50;;;;;;8431291;28;20015;-46
2022/09/05 02:45:56;;;;;;;;;;;23.80;44.50;;;;;;8432819;28;19923;-45
2022/09/05 02:50:05;;;;;;;;;;;23.80;44.50;;;;;;8432210;28;19916;-44
2022/09/05 02:54:15;;;;;;;;;;;23.80;44.50;;;;;;8431501;28;19916;-45
2022/09/05 02:58:26;;;;;;;;;;;23.80;44.50;;;;;;8431902;28;19931;-44
2022/09/05 03:02:45;;;;;;;;;;;23.80;44.50;;;;;;8431929;28;19920;-45
2022/09/05 03:07:07;;;;;;;;;;;23.80;44.50;;;;;;8431867;28;19917;-45
2022/09/05 03:11:10;;;;;;;;;;;23.80;44.60;;;;;;8431719;28;19998;-44
2022/09/05 03:15:14;;;;;;;;;;;23.80;44.60;;;;;;8431287;28;20436;-44
2022/09/05 03:19:24;;;;;;;;;;;23.80;44.50;;;;;;8431320;28;20014;-45
2022/09/05 03:23:27;;;;;;;;;;;23.80;44.60;;;;;;8430659;28;20357;-46
2022/09/05 03:27:30;;;;;;;;;;;23.70;44.50;;;;;;8430878;28;19919;-44
2022/09/05 03:31:49;;;;;;;;;;;23.80;44.50;;;;;;8431008;28;19969;-44
2022/09/05 03:35:49;;;;;;;;;;;23.70;44.50;;;;;;8430523;28;20003;-45
2022/09/05 03:39:59;;;;;;;;;;;23.80;44.60;;;;;;8430543;28;19923;-44
2022/09/05 03:44:18;;;;;;;;;;;23.70;44.50;;;;;;8430456;28;19912;-45
2022/09/05 03:48:26;;;;;;;;;;;23.70;44.50;;;;;;8430158;28;19923;-43
2022/09/05 03:52:35;;;;;;;;;;;23.70;44.50;;;;;;8430343;28;19913;-45
2022/09/05 03:56:42;;;;;;;;;;;23.70;44.50;;;;;;8429839;28;19931;-44
2022/09/05 04:00:57;;;;;;;;;;;23.70;44.50;;;;;;8430480;28;19916;-43
2022/09/05 04:05:09;;;;;;;;;;;23.70;44.60;;;;;;8402807;28;19948;-44
2022/09/05 04:09:12;;;;;;;;;;;23.70;44.60;;;;;;8417274;28;20430;-44
2022/09/05 04:13:13;;;;;;;;;;;23.70;44.60;;;;;;8429985;28;20377;-45
2022/09/05 04:17:32;;;;;;;;;;;23.70;44.60;;;;;;8429108;28;19924;-45
2022/09/05 04:21:34;;;;;;;;;;;23.70;44.60;;;;;;8430089;28;19912;-44
2022/09/05 04:25:47;;;;;;;;;;;23.70;44.60;;;;;;8429639;28;20006;-44
2022/09/05 04:29:56;;;;;;;;;;;23.70;44.60;;;;;;8429058;28;19916;-44
2022/09/05 04:34:03;;;;;;;;;;;23.60;44.50;;;;;;8429103;28;21299;-44
2022/09/05 04:38:04;;;;;;;;;;;23.60;44.50;;;;;;8429275;28;19924;-44
2022/09/05 04:42:04;;;;;;;;;;;23.60;44.50;;;;;;8428844;28;19916;-44
2022/09/05 04:46:10;;;;;;;;;;;23.60;44.60;;;;;;8429803;28;19916;-46
2022/09/05 04:50:15;;;;;;;;;;;23.60;44.60;;;;;;8428787;28;20436;-45
2022/09/05 04:54:27;;;;;;;;;;;23.60;44.60;;;;;;8429672;28;19920;-44
2022/09/05 04:58:28;;;;;;;;;;;23.60;44.60;;;;;;8429063;28;20012;-45
2022/09/05 05:02:41;;;;;;;;;;;23.60;44.60;;;;;;8429249;28;19920;-45
2022/09/05 05:06:57;;;;;;;;;;;23.60;44.60;;;;;;8435019;28;19912;-44
2022/09/05 05:11:02;;;;;;;;;;;23.60;44.60;;;;;;8435380;28;19920;-46
2022/09/05 05:15:07;;;;;;;;;;;23.60;44.60;;;;;;8434270;28;20061;-44
2022/09/05 05:19:19;;;;;;;;;;;23.60;44.60;;;;;;8435096;28;19970;-45
2022/09/05 05:23:29;;;;;;;;;;;23.50;44.60;;;;;;8434144;28;19912;-45
2022/09/05 05:27:48;;;;;;;;;;;23.60;44.60;;;;;;8434723;28;19974;-44
2022/09/05 05:31:50;;;;;;;;;;;23.50;44.50;;;;;;8435010;28;19966;-43
2022/09/05 05:35:53;;;;;;;;;;;23.50;44.50;;;;;;8433994;28;20007;-45
2022/09/05 05:40:04;;;;;;;;;;;23.50;44.60;;;;;;8434299;28;19920;-45
2022/09/05 05:44:10;;;;;;;;;;;23.60;44.60;;;;;;8434043;28;19912;-45
2022/09/05 05:48:17;;;;;;;;;;;23.50;44.60;;;;;;8434163;28;20261;-44
2022/09/05 05:52:36;;;;;;;;;;;23.50;44.60;;;;;;8434229;28;19912;-44
2022/09/05 05:56:51;;;;;;;;;;;23.50;44.60;;;;;;8433570;28;20355;-45
2022/09/05 06:01:18;;;;;;;;;;;23.50;44.50;;;;;;8434008;28;19916;-44
2022/09/05 06:05:27;;;;;;;;;;;23.50;44.50;;;;;;8433024;28;19919;-44
2022/09/05 06:09:47;;;;;;;;;;;23.50;44.60;;;;;;8433392;28;20389;-46
2022/09/05 06:14:07;;;;;;;;;;;23.50;44.60;;;;;;8431968;28;19919;-45
2022/09/05 06:18:20;;;;;;;;;;;23.50;44.50;;;;;;8432443;28;19924;-45
2022/09/05 06:22:21;;;;;;;;;;;23.50;44.50;;;;;;8433338;28;19913;-44
2022/09/05 06:26:21;;;;;;;;;;;23.50;44.50;;;;;;8432437;28;19923;-44
2022/09/05 06:30:22;;;;;;;;;;;23.50;44.50;;;;;;8432680;28;20000;-43
2022/09/05 06:34:23;;;;;;;;;;;23.50;44.50;;;;;;8432604;28;20020;-44
2022/09/05 06:38:45;;;;;;;;;;;23.50;44.40;;;;;;8432031;28;20304;-46
2022/09/05 06:42:45;;;;;;;;;;;23.60;44.50;;;;;;8432399;28;19912;-44
2022/09/05 06:46:48;;;;;;;;;;;23.60;44.40;;;;;;8432375;28;19913;-45
2022/09/05 06:51:17;;;;;;;;;;;23.50;44.40;;;;;;8431593;28;19942;-45
2022/09/05 06:55:20;;;;;;;;;;;23.50;44.40;;;;;;8431834;28;19922;-45
2022/09/05 06:59:45;;;;;;;;;;;23.50;44.40;;;;;;8431103;28;19924;-45
2022/09/05 07:03:54;;;;;;;;;;;23.50;44.40;;;;;;8431614;28;19917;-45
2022/09/05 07:07:57;;;;;;;;;;;23.60;44.50;;;;;;8430718;28;19912;-45
2022/09/05 07:12:16;;;;;;;;;;;23.50;44.40;;;;;;8431167;28;19927;-43
2022/09/05 07:16:18;;;;;;;;;;;23.50;44.40;;;;;;8431229;28;20395;-42
2022/09/05 07:20:21;;;;;;;;;;;23.50;44.50;;;;;;8430618;28;19918;-44
2022/09/05 07:24:24;;;;;;;;;;;23.60;44.50;;;;;;8430967;28;19966;-45
2022/09/05 07:28:25;;;;;;;;;;;23.50;44.40;;;;;;8430531;28;19912;-43
2022/09/05 07:32:27;;;;;;;;;;;23.50;44.40;;;;;;8430706;28;19977;-45
2022/09/05 07:36:31;;;;;;;;;;;23.60;44.50;;;;;;8430797;28;19999;-46
2022/09/05 07:40:34;;;;;;;;;;;23.60;44.40;;;;;;8430530;28;19917;-45
2022/09/05 07:44:35;;;;;;;;;;;23.60;44.40;;;;;;8429979;28;19946;-44
2022/09/05 07:48:38;;;;;;;;;;;23.60;44.40;;;;;;8421416;28;19922;-43
2022/09/05 07:52:41;;;;;;;;;;;23.60;44.40;;;;;;8397560;28;19916;-43
2022/09/05 07:56:48;;;;;;;;;;;23.60;44.40;;;;;;8415482;28;19924;-43
2022/09/05 08:00:53;;;;;;;;;;;23.60;44.40;;;;;;8425293;28;20379;-44
2022/09/05 08:05:00;;;;;;;;;;;23.60;44.40;;;;;;8424787;28;19920;-45
2022/09/05 08:09:07;;;;;;;;;;;23.60;44.40;;;;;;8429440;28;19916;-43
2022/09/05 08:13:10;;;;;;;;;;;23.60;44.40;;;;;;8411917;28;19951;-43
2022/09/05 08:17:18;;;;;;;;;;;23.70;44.40;;;;;;8425106;28;19924;-45
2022/09/05 08:21:22;;;;;;;;;;;23.60;44.90;;;;;;8423580;28;19950;-44
2022/09/05 08:25:26;;;;;;;;;;;23.70;44.50;;;;;;8412472;28;20253;-43
2022/09/05 08:29:37;;;;;;;;;;;23.70;44.50;;;;;;8429391;28;20379;-43
2022/09/05 08:33:37;;;;;;;;;;;23.70;44.50;;;;;;8413077;28;20419;-45
2022/09/05 08:37:39;;;;;;;;;;;23.70;44.40;;;;;;8430873;28;19961;-43
2022/09/05 08:41:39;;;;;;;;;;;23.70;44.40;;;;;;8427896;28;19984;-42
2022/09/05 08:45:48;;;;;;;;;;;23.70;44.50;;;;;;8420729;28;20034;-44
2022/09/05 08:50:08;;;;;;;;;;;23.70;44.50;;;;;;8435388;28;19926;-45
2022/09/05 08:54:13;;;;;;;;;;;23.70;44.40;;;;;;8419869;28;19923;-44
2022/09/05 08:58:32;;;;;;;;;;;23.70;44.50;;;;;;8435821;28;19970;-43
2022/09/05 09:02:46;;;;;;;;;;;23.70;44.50;;;;;;8434029;28;19958;-44
2022/09/05 09:06:50;;;;;;;;;;;23.70;44.50;;;;;;8435427;28;20436;-45
2022/09/05 09:11:01;;;;;;;;;;;23.70;44.50;;;;;;8434251;28;19916;-45
2022/09/05 09:15:11;;;;;;;;;;;23.70;44.50;;;;;;8434562;28;20246;-45
2022/09/05 09:19:15;;;;;;;;;;;23.70;44.50;;;;;;8433624;28;19928;-45
2022/09/05 09:23:20;;;;;;;;;;;23.70;44.50;;;;;;8427276;28;20297;-44
2022/09/05 09:27:39;;;;;;;;;;;23.70;44.50;;;;;;8431744;28;19917;-46
2022/09/05 09:32:03;;;;;;;;;;;23.70;44.50;;;;;;8431803;28;20004;-46
2022/09/05 09:36:27;;;;;;;;;;;23.70;44.50;;;;;;8431733;28;20301;-44
2022/09/05 09:40:27;;;;;;;;;;;23.70;44.50;;;;;;8393439;28;19912;-45
2022/09/05 09:44:47;;;;;;;;;;;23.70;44.60;;;;;;8431467;28;19923;-45
2022/09/05 09:48:54;;;;;;;;;;;23.70;44.60;;;;;;8432472;28;19916;-45
2022/09/05 09:53:05;;;;;;;;;;;23.70;44.50;;;;;;8434327;28;19916;-45
2022/09/05 09:57:17;;;;;;;;;;;23.70;44.60;;;;;;8433282;28;20342;-45
2022/09/05 10:01:20;;;;;;;;;;;23.70;44.60;;;;;;8434166;28;19916;-44
2022/09/05 10:05:39;;;;;;;;;;;23.70;44.70;;;;;;8430719;28;20385;-45
2022/09/05 10:10:05;;;;;;;;;;;23.70;44.60;;;;;;8405391;28;19916;-44
2022/09/05 10:14:11;;;;;;;;;;;23.70;44.60;;;;;;8433415;28;19950;-43
2022/09/05 10:18:30;;;;;;;;;;;23.70;44.60;;;;;;8433016;28;19978;-48
2022/09/05 10:22:49;;;;;;;;;;;23.70;44.70;;;;;;8433324;28;20002;-44
2022/09/05 10:26:56;;;;;;;;;;;23.70;44.70;;;;;;8432449;28;19951;-46
2022/09/05 10:31:06;;;;;;;;;;;23.70;44.70;;;;;;8433119;28;20007;-42
2022/09/05 10:35:10;;;;;;;;;;;23.70;44.70;;;;;;8432700;28;19912;-43
2022/09/05 10:39:18;;;;;;;;;;;23.70;44.80;;;;;;8432254;28;20011;-44
2022/09/05 10:43:28;;;;;;;;;;;23.70;44.70;;;;;;8432602;28;19923;-44
2022/09/05 10:47:44;;;;;;;;;;;23.70;44.70;;;;;;8431773;28;19912;-44
2022/09/05 10:51:54;;;;;;;;;;;23.70;44.70;;;;;;8432145;28;19966;-44
2022/09/05 10:56:05;;;;;;;;;;;23.80;44.70;;;;;;8432183;28;20380;-44
2022/09/05 11:00:07;;;;;;;;;;;23.70;44.60;;;;;;8430631;28;20303;-44
2022/09/05 11:04:11;;;;;;;;;;;23.80;44.60;;;;;;8432191;28;19935;-44
2022/09/05 11:08:20;;;;;;;;;;;23.80;44.60;;;;;;8431205;28;19920;-45
2022/09/05 11:12:28;;;;;;;;;;;23.80;44.60;;;;;;8431391;28;19917;-44
2022/09/05 11:16:29;;;;;;;;;;;23.80;44.60;;;;;;8431401;28;19924;-43
2022/09/05 11:20:43;;;;;;;;;;;23.80;44.50;;;;;;8430642;28;19923;-44
2022/09/05 11:24:49;;;;;;;;;;;23.90;44.50;;;;;;8431079;28;19912;-45
2022/09/05 11:28:53;;;;;;;;;;;23.90;44.50;;;;;;8412918;28;19991;-44
2022/09/05 11:33:14;;;;;;;;;;;23.80;44.50;;;;;;8430279;28;19923;-45
2022/09/05 11:37:41;;;;;;;;;;;23.90;44.60;;;;;;8430781;28;20019;-43
2022/09/05 11:41:54;;;;;;;;;;;23.90;44.50;;;;;;8430125;28;19961;-43
2022/09/05 11:46:01;;;;;;;;;;;23.90;44.40;;;;;;8430730;28;20359;-45
2022/09/05 11:50:09;;;;;;;;;;;23.90;44.50;;;;;;8430473;28;19912;-45
2022/09/05 11:54:25;;;;;;;;;;;23.90;44.50;;;;;;8430094;28;19919;-45
2022/09/05 11:58:37;;;;;;;;;;;23.90;44.40;;;;;;8430301;28;20024;-46
2022/09/05 12:02:48;;;;;;;;;;;24.00;44.40;;;;;;8429621;28;20330;-46
2022/09/05 12:06:56;;;;;;;;;;;24.00;44.40;;;;;;8429908;28;19923;-46
2022/09/05 12:11:15;;;;;;;;;;;24.00;44.40;;;;;;8430064;28;19916;-45
2022/09/05 12:15:26;;;;;;;;;;;24.00;44.30;;;;;;8429172;28;19920;-45
2022/09/05 12:19:30;;;;;;;;;;;24.00;44.30;;;;;;8429782;28;20372;-46
2022/09/05 12:23:52;;;;;;;;;;;24.00;44.30;;;;;;8429349;28;19947;-46
2022/09/05 12:27:55;;;;;;;;;;;24.00;44.30;;;;;;8429934;28;19970;-45
2022/09/05 12:31:59;;;;;;;;;;;24.00;44.30;;;;;;8429657;28;20388;-45
2022/09/05 12:36:03;;;;;;;;;;;24.10;44.30;;;;;;8429038;28;20262;-44
2022/09/05 12:40:12;;;;;;;;;;;24.10;44.30;;;;;;8429858;28;19912;-44
2022/09/05 12:44:19;;;;;;;;;;;24.10;44.30;;;;;;8429215;28;19916;-45
2022/09/05 12:48:26;;;;;;;;;;;24.10;44.30;;;;;;8429402;28;19916;-44
2022/09/05 12:52:35;;;;;;;;;;;24.10;44.20;;;;;;8429318;28;20384;-45
2022/09/05 12:56:50;;;;;;;;;;;24.10;44.20;;;;;;8428768;28;19930;-45
2022/09/05 13:00:53;;;;;;;;;;;24.20;44.20;;;;;;8429527;28;19916;-44
2022/09/05 13:04:57;;;;;;;;;;;24.20;44.30;;;;;;8428315;28;20325;-44
2022/09/05 13:09:02;;;;;;;;;;;24.20;44.70;;;;;;8428516;28;19916;-44
2022/09/05 13:13:06;;;;;;;;;;;24.20;44.20;;;;;;8429011;28;19923;-45
2022/09/05 13:17:07;;;;;;;;;;;24.20;44.20;;;;;;8428728;28;19931;-44
2022/09/05 13:21:09;;;;;;;;;;;24.20;44.20;;;;;;8428518;28;19916;-45
2022/09/05 13:25:30;;;;;;;;;;;24.30;44.20;;;;;;8432754;28;19912;-45
2022/09/05 13:29:52;;;;;;;;;;;24.20;44.20;;;;;;8433869;28;20315;-45
2022/09/05 13:33:53;;;;;;;;;;;24.30;44.20;;;;;;8434904;28;20304;-43
2022/09/05 13:37:59;;;;;;;;;;;24.30;44.20;;;;;;8434437;28;20372;-44
2022/09/05 13:42:02;;;;;;;;;;;24.30;44.10;;;;;;8434032;28;19966;-43
2022/09/05 13:46:05;;;;;;;;;;;24.30;44.10;;;;;;8434662;28;20388;-43
2022/09/05 13:50:21;;;;;;;;;;;24.30;44.10;;;;;;8434449;28;19947;-45
2022/09/05 13:54:27;;;;;;;;;;;24.30;44.10;;;;;;8433756;28;19917;-43
2022/09/05 13:58:38;;;;;;;;;;;24.30;44.00;;;;;;8433951;28;20011;-43
2022/09/05 14:02:58;;;;;;;;;;;24.30;44.00;;;;;;8433388;28;19959;-42
2022/09/05 14:07:24;;;;;;;;;;;24.30;44.00;;;;;;8433824;28;19920;-45
2022/09/05 14:11:43;;;;;;;;;;;24.40;44.00;;;;;;8433151;28;19916;-46
2022/09/05 14:15:50;;;;;;;;;;;24.40;44.00;;;;;;8433646;28;19931;-45
2022/09/05 14:24:18;;;;;;;;;;;24.40;44.00;;;;;;8432684;28;19961;-45
2022/09/05 14:28:41;;;;;;;;;;;24.40;44.00;;;;;;8432904;28;19916;-43
2022/09/05 14:32:58;;;;;;;;;;;24.40;44.00;;;;;;8432267;28;19922;-45
2022/09/05 14:37:04;;;;;;;;;;;24.40;44.00;;;;;;8431708;28;19924;-44
2022/09/05 14:41:29;;;;;;;;;;;24.40;43.90;;;;;;8432610;28;20368;-44
2022/09/05 14:45:35;;;;;;;;;;;24.40;43.90;;;;;;8432415;28;20359;-45
2022/09/05 14:49:39;;;;;;;;;;;24.50;43.90;;;;;;8431838;28;19924;-44
2022/09/05 14:54:05;;;;;;;;;;;24.50;44.60;;;;;;8429520;28;19951;-44
2022/09/05 14:58:07;;;;;;;;;;;24.50;44.70;;;;;;8424557;28;20281;-43
2022/09/05 15:02:10;;;;;;;;;;;24.50;44.40;;;;;;8428703;28;20261;-43
2022/09/05 15:06:14;;;;;;;;;;;24.50;44.80;;;;;;8428060;28;19947;-44
2022/09/05 15:10:14;;;;;;;;;;;24.50;44.20;;;;;;8431254;28;19920;-45
2022/09/05 15:14:17;;;;;;;;;;;24.50;44.20;;;;;;8430886;28;19916;-45
2022/09/05 15:18:32;;;;;;;;;;;24.50;44.10;;;;;;8431230;28;19959;-46
2022/09/05 15:22:34;;;;;;;;;;;24.50;44.10;;;;;;8431475;28;19923;-45
2022/09/05 15:26:45;;;;;;;;;;;24.50;44.10;;;;;;8430730;28;20261;-47
2022/09/05 15:30:59;;;;;;;;;;;24.50;44.10;;;;;;8431175;28;19919;-45
2022/09/05 15:34:59;;;;;;;;;;;24.50;44.00;;;;;;8430931;28;19961;-42
2022/09/05 15:39:18;;;;;;;;;;;24.50;44.00;;;;;;8430060;28;20058;-44
2022/09/05 15:43:20;;;;;;;;;;;24.60;44.00;;;;;;8430689;28;19920;-43
2022/09/05 15:47:23;;;;;;;;;;;24.60;44.00;;;;;;8429728;28;19923;-46
2022/09/05 15:51:32;;;;;;;;;;;24.60;44.00;;;;;;8430690;28;20070;-45
2022/09/05 15:55:42;;;;;;;;;;;24.60;44.00;;;;;;8430577;28;19913;-43
2022/09/05 15:59:46;;;;;;;;;;;24.50;43.90;;;;;;8429451;28;19924;-44
2022/09/05 16:03:48;;;;;;;;;;;24.60;44.00;;;;;;8430035;28;19954;-45
2022/09/05 16:07:51;;;;;;;;;;;24.60;44.00;;;;;;8430154;28;19916;-45
2022/09/05 16:11:52;;;;;;;;;;;24.60;44.00;;;;;;8428278;28;19916;-45
2022/09/05 16:15:52;;;;;;;;;;;24.60;44.00;;;;;;8430276;28;20437;-44
2022/09/05 16:20:01;;;;;;;;;;;24.60;43.90;;;;;;8429564;28;19932;-44
2022/09/05 16:24:05;;;;;;;;;;;24.60;43.90;;;;;;8429378;28;19955;-43
2022/09/05 16:28:14;;;;;;;;;;;24.60;43.90;;;;;;8429562;28;19916;-43
2022/09/05 16:32:23;;;;;;;;;;;24.60;43.90;;;;;;8429153;28;19946;-42
2022/09/05 16:36:46;;;;;;;;;;;24.60;43.90;;;;;;8429738;28;19924;-45
2022/09/05 16:40:53;;;;;;;;;;;24.60;43.90;;;;;;8418811;28;19916;-44
2022/09/05 16:44:57;;;;;;;;;;;24.60;43.90;;;;;;8428923;28;20045;-42
2022/09/05 16:49:05;;;;;;;;;;;24.60;43.90;;;;;;8429429;28;19916;-44
2022/09/05 16:53:17;;;;;;;;;;;24.60;43.90;;;;;;8429447;28;19916;-43
2022/09/05 16:57:24;;;;;;;;;;;24.60;43.90;;;;;;8429158;28;19931;-42
2022/09/05 17:01:47;;;;;;;;;;;24.60;43.90;;;;;;8435438;28;20003;-44
2022/09/05 17:05:51;;;;;;;;;;;24.60;43.90;;;;;;8397279;28;19923;-43
2022/09/05 17:09:51;;;;;;;;;;;24.50;43.90;;;;;;8435369;28;19916;-45
2022/09/05 17:13:53;;;;;;;;;;;24.60;43.90;;;;;;8435416;28;20361;-45
2022/09/05 17:17:57;;;;;;;;;;;24.60;44.00;;;;;;8434407;28;19928;-44
2022/09/05 17:22:04;;;;;;;;;;;24.60;43.90;;;;;;8435107;28;19956;-44
2022/09/05 17:26:05;;;;;;;;;;;24.60;44.50;;;;;;8435313;28;20373;-43
2022/09/05 17:30:06;;;;;;;;;;;24.60;44.00;;;;;;8434169;28;19920;-44
2022/09/05 17:34:14;;;;;;;;;;;24.60;44.10;;;;;;8434521;28;19916;-44
2022/09/05 17:38:33;;;;;;;;;;;24.60;44.10;;;;;;8433897;28;20335;-43
2022/09/05 17:42:36;;;;;;;;;;;24.50;44.00;;;;;;8434349;28;19916;-43
2022/09/05 17:46:44;;;;;;;;;;;24.50;44.20;;;;;;8434625;28;19912;-43
2022/09/05 17:50:52;;;;;;;;;;;24.50;44.30;;;;;;8433798;28;19916;-43
2022/09/05 17:54:54;;;;;;;;;;;24.50;44.20;;;;;;8434411;28;20338;-43
2022/09/05 17:59:02;;;;;;;;;;;24.50;44.10;;;;;;8434034;28;19935;-44
2022/09/05 18:03:03;;;;;;;;;;;24.50;44.10;;;;;;8433395;28;19963;-43
2022/09/05 18:07:24;;;;;;;;;;;24.50;44.10;;;;;;8433915;28;19913;-42
2022/09/05 18:11:25;;;;;;;;;;;24.50;44.10;;;;;;8433213;28;20380;-45
2022/09/05 18:15:26;;;;;;;;;;;24.50;44.20;;;;;;8433534;28;20397;-44
2022/09/05 18:19:32;;;;;;;;;;;24.50;44.20;;;;;;8433177;28;19924;-44
2022/09/05 18:23:44;;;;;;;;;;;24.50;44.20;;;;;;8432738;28;19916;-43
2022/09/05 18:27:55;;;;;;;;;;;24.50;44.20;;;;;;8433258;28;20024;-42
2022/09/05 18:31:56;;;;;;;;;;;24.50;44.30;;;;;;8433100;28;19961;-43
2022/09/05 18:35:56;;;;;;;;;;;24.50;44.30;;;;;;8432166;28;19920;-43
2022/09/05 18:40:05;;;;;;;;;;;24.50;44.30;;;;;;8432607;28;19924;-42
2022/09/05 18:44:06;;;;;;;;;;;24.50;44.30;;;;;;8432387;28;20338;-44
2022/09/05 18:48:07;;;;;;;;;;;24.50;44.30;;;;;;8431809;28;19920;-44
2022/09/05 18:52:16;;;;;;;;;;;24.50;44.30;;;;;;8432801;28;19955;-46
2022/09/05 18:56:23;;;;;;;;;;;24.50;44.30;;;;;;8431711;28;19916;-44
2022/09/05 19:00:26;;;;;;;;;;;24.50;44.30;;;;;;8431958;28;19927;-44
2022/09/05 19:04:27;;;;;;;;;;;24.50;44.30;;;;;;8431200;28;19942;-45
2022/09/05 19:08:33;;;;;;;;;;;24.50;44.30;;;;;;8431372;28;20086;-43
2022/09/05 19:12:35;;;;;;;;;;;24.50;44.90;;;;;;8431851;28;19951;-43
2022/09/05 19:16:36;;;;;;;;;;;24.50;44.30;;;;;;8431158;28;19965;-46
2022/09/05 19:20:55;;;;;;;;;;;24.50;44.30;;;;;;8430410;28;19916;-45
2022/09/05 19:24:56;;;;;;;;;;;24.50;44.40;;;;;;8431506;28;20334;-44
2022/09/05 19:28:58;;;;;;;;;;;24.50;44.30;;;;;;8431343;28;19916;-44
2022/09/05 19:33:00;;;;;;;;;;;24.50;44.40;;;;;;8430666;28;19923;-43
2022/09/05 19:37:02;;;;;;;;;;;24.40;44.30;;;;;;8431266;28;20002;-43
2022/09/05 19:41:03;;;;;;;;;;;24.40;44.30;;;;;;8430673;28;19920;-44
2022/09/05 19:45:05;;;;;;;;;;;24.50;44.40;;;;;;8430182;28;20004;-43
2022/09/05 19:49:09;;;;;;;;;;;24.50;44.40;;;;;;8430324;28;19966;-43
2022/09/05 19:53:11;;;;;;;;;;;24.50;44.40;;;;;;8430396;28;20357;-43
2022/09/05 19:57:15;;;;;;;;;;;24.40;44.30;;;;;;8430044;28;19935;-44
2022/09/05 20:01:17;;;;;;;;;;;24.40;44.40;;;;;;8430490;28;19947;-43
2022/09/05 20:05:18;;;;;;;;;;;24.40;44.40;;;;;;8429475;28;19957;-44
2022/09/05 20:09:20;;;;;;;;;;;24.40;44.40;;;;;;8430312;28;20364;-43
2022/09/05 20:13:22;;;;;;;;;;;24.40;44.40;;;;;;8430008;28;19913;-44
2022/09/05 20:17:25;;;;;;;;;;;24.40;44.40;;;;;;8429814;28;19947;-45
2022/09/05 20:21:28;;;;;;;;;;;24.40;44.40;;;;;;8429876;28;20435;-44
2022/09/05 20:25:33;;;;;;;;;;;24.40;44.40;;;;;;8429833;28;20377;-44
2022/09/05 20:29:52;;;;;;;;;;;24.40;44.40;;;;;;8429281;28;20260;-43
2022/09/05 20:33:56;;;;;;;;;;;24.40;44.40;;;;;;8431683;28;20141;-45
2022/09/05 20:38:00;;;;;;;;;;;24.40;44.40;;;;;;8436782;28;20010;-44
2022/09/05 20:42:00;;;;;;;;;;;24.40;44.40;;;;;;8435920;28;20380;-42
2022/09/05 20:46:02;;;;;;;;;;;24.40;44.50;;;;;;8436509;28;19923;-44
2022/09/05 20:50:12;;;;;;;;;;;24.40;44.40;;;;;;8436093;28;19913;-43
2022/09/05 20:54:13;;;;;;;;;;;24.40;44.50;;;;;;8435748;28;19916;-44
2022/09/05 20:58:16;;;;;;;;;;;24.40;44.50;;;;;;8435588;28;19920;-43
2022/09/05 21:02:24;;;;;;;;;;;24.40;44.50;;;;;;8435422;28;19924;-43
2022/09/05 21:06:28;;;;;;;;;;;24.40;44.50;;;;;;8435779;28;20491;-44
2022/09/05 21:10:28;;;;;;;;;;;24.40;44.50;;;;;;8435702;28;19964;-43
2022/09/05 21:14:29;;;;;;;;;;;24.40;44.50;;;;;;8435120;28;19920;-43
2022/09/05 21:18:31;;;;;;;;;;;24.40;45.00;;;;;;8435819;28;19920;-42
2022/09/05 21:22:37;;;;;;;;;;;24.40;44.50;;;;;;8435540;28;19956;-43
2022/09/05 21:26:37;;;;;;;;;;;24.30;44.50;;;;;;8434497;28;19916;-43
2022/09/05 21:30:39;;;;;;;;;;;24.40;44.50;;;;;;8434974;28;19946;-42
2022/09/05 21:34:41;;;;;;;;;;;24.40;44.50;;;;;;8434956;28;20312;-43
2022/09/05 21:38:41;;;;;;;;;;;24.40;44.50;;;;;;8434087;28;19928;-44
2022/09/05 21:42:42;;;;;;;;;;;24.40;44.50;;;;;;8434763;28;20403;-45
2022/09/05 21:46:42;;;;;;;;;;;24.30;44.50;;;;;;8433653;28;20269;-44
2022/09/05 21:50:50;;;;;;;;;;;24.30;44.50;;;;;;8433964;28;19916;-44
2022/09/05 21:54:52;;;;;;;;;;;24.30;44.60;;;;;;8434148;28;19916;-43
2022/09/05 21:58:54;;;;;;;;;;;24.30;44.50;;;;;;8433931;28;19921;-44
2022/09/05 22:02:55;;;;;;;;;;;24.30;44.60;;;;;;8436582;28;19916;-43
2022/09/05 22:06:56;;;;;;;;;;;24.30;44.60;;;;;;8433707;28;19915;-43
2022/09/05 22:10:56;;;;;;;;;;;24.30;44.60;;;;;;8433731;28;20004;-44
2022/09/05 22:14:57;;;;;;;;;;;24.30;44.50;;;;;;8432926;28;19920;-43
2022/09/05 22:18:59;;;;;;;;;;;24.30;44.60;;;;;;8433557;28;19920;-43
2022/09/05 22:23:00;;;;;;;;;;;24.30;44.60;;;;;;8433563;28;19923;-44
2022/09/05 22:27:04;;;;;;;;;;;24.30;44.60;;;;;;8432437;28;20006;-43
2022/09/05 22:31:05;;;;;;;;;;;24.30;44.60;;;;;;8433294;28;19916;-43
2022/09/05 22:35:06;;;;;;;;;;;24.30;44.60;;;;;;8432848;28;20018;-44
2022/09/05 22:39:06;;;;;;;;;;;24.30;44.60;;;;;;8432230;28;19924;-42
2022/09/05 22:43:08;;;;;;;;;;;24.30;44.60;;;;;;8432869;28;19916;-44
2022/09/05 22:47:10;;;;;;;;;;;24.30;44.60;;;;;;8432436;28;20015;-46
2022/09/05 22:51:11;;;;;;;;;;;24.30;44.60;;;;;;8432006;28;19923;-43
2022/09/05 22:55:11;;;;;;;;;;;24.30;44.60;;;;;;8432101;28;20327;-43
2022/09/05 22:59:15;;;;;;;;;;;24.30;44.60;;;;;;8430729;28;20396;-42
2022/09/05 23:03:15;;;;;;;;;;;24.30;44.70;;;;;;8432129;28;19917;-44
2022/09/05 23:07:16;;;;;;;;;;;24.30;44.60;;;;;;8431968;28;19939;-44
2022/09/05 23:11:16;;;;;;;;;;;24.30;44.60;;;;;;8431311;28;20011;-44
2022/09/05 23:15:17;;;;;;;;;;;24.30;44.70;;;;;;8431612;28;19994;-44
2022/09/05 23:19:17;;;;;;;;;;;24.20;44.70;;;;;;8431801;28;19920;-44
2022/09/05 23:23:18;;;;;;;;;;;24.30;44.70;;;;;;8430901;28;19923;-43
2022/09/05 23:27:18;;;;;;;;;;;24.20;44.70;;;;;;8431182;28;19942;-44
2022/09/05 23:31:19;;;;;;;;;;;24.20;44.70;;;;;;8431393;28;19916;-44
2022/09/05 23:35:19;;;;;;;;;;;24.20;44.70;;;;;;8430591;28;19927;-43
2022/09/05 23:39:19;;;;;;;;;;;24.20;44.70;;;;;;8430944;28;20281;-43
2022/09/05 23:43:20;;;;;;;;;;;24.20;44.70;;;;;;8430901;28;19916;-42
2022/09/05 23:47:20;;;;;;;;;;;24.20;44.70;;;;;;8429986;28;20369;-42
2022/09/05 23:51:21;;;;;;;;;;;24.20;44.70;;;;;;8430602;28;20296;-45
2022/09/05 23:55:22;;;;;;;;;;;24.20;44.80;;;;;;8430575;28;19916;-43
2022/09/05 23:59:22;;;;;;;;;;;24.20;44.70;;;;;;8430264;28;20388;-44
